createdAt,value
2023-03-23T15:58:43.534Z,11.37
2023-03-23T16:01:15.687Z,11.34
2023-03-23T16:03:48.029Z,11.39
2023-03-23T16:06:23.879Z,11.43
2023-03-23T16:08:56.457Z,11.41
2023-03-23T16:11:26.106Z,11.39
2023-03-23T16:13:53.774Z,11.35
2023-03-23T16:16:26.260Z,11.41
2023-03-23T16:18:53.128Z,11.43
2023-03-23T16:21:19.825Z,11.33
2023-03-23T16:23:46.550Z,11.34
2023-03-23T16:26:14.582Z,11.32
2023-03-23T16:28:42.203Z,11.25
2023-03-23T16:31:08.833Z,11.20
2023-03-23T16:33:35.533Z,11.36
2023-03-23T16:36:02.259Z,11.33
2023-03-23T16:38:28.889Z,11.35
2023-03-23T16:40:55.753Z,11.42
2023-03-23T16:43:22.640Z,11.36
2023-03-23T16:45:49.379Z,11.32
2023-03-23T16:48:17.082Z,11.38
2023-03-23T16:50:44.972Z,11.53
2023-03-23T16:53:11.794Z,11.40
2023-03-23T16:55:39.180Z,11.20
2023-03-23T16:58:16.292Z,11.18
2023-03-23T17:00:48.065Z,10.88
2023-03-23T17:03:16.504Z,10.74
2023-03-23T17:05:45.045Z,10.77
2023-03-23T17:08:12.312Z,10.70
2023-03-23T17:10:40.738Z,10.64
2023-03-23T17:13:08.028Z,10.42
2023-03-23T17:15:40.904Z,10.47
2023-03-23T17:18:08.028Z,10.49
2023-03-23T17:20:35.898Z,10.30
2023-03-23T17:23:03.038Z,10.26
2023-03-23T17:25:33.320Z,10.27
2023-03-23T17:28:05.888Z,10.31
2023-03-23T17:30:34.735Z,10.34
2023-03-23T17:33:05.139Z,10.24
2023-03-23T17:35:32.453Z,9.99
2023-03-23T17:37:59.905Z,10.12
2023-03-23T17:40:29.813Z,10.02
2023-03-23T17:42:56.793Z,9.87
2023-03-23T17:45:24.149Z,9.61
2023-03-23T17:47:51.063Z,9.70
2023-03-23T17:50:17.749Z,9.56
2023-03-23T17:52:44.304Z,9.60
2023-03-23T17:55:11.198Z,9.48
2023-03-23T17:57:37.813Z,9.38
2023-03-23T18:00:08.605Z,9.48
2023-03-23T18:02:36.964Z,9.39
2023-03-23T18:05:03.852Z,9.35
2023-03-23T18:07:30.281Z,9.11
2023-03-23T18:10:00.265Z,9.07
2023-03-23T18:12:26.793Z,9.16
2023-03-23T19:00:39.660Z,8.59
2023-03-23T19:03:06.977Z,8.53
2023-03-23T19:05:34.963Z,8.68
2023-03-23T19:08:01.756Z,8.58
2023-03-23T19:10:28.448Z,8.52
2023-03-23T19:12:54.933Z,8.53
2023-03-23T19:15:21.508Z,8.51
2023-03-23T19:17:48.026Z,8.46
2023-03-23T19:20:19.736Z,8.50
2023-03-23T19:23:01.138Z,8.57
2023-03-23T19:25:27.707Z,8.40
2023-03-23T19:30:23.644Z,8.44
2023-03-23T19:32:50.097Z,8.20
2023-03-23T19:35:16.780Z,8.24
2023-03-23T19:37:43.418Z,8.23
2023-03-23T19:40:33.792Z,8.25
2023-03-23T19:42:57.487Z,8.25
2023-03-23T19:45:24.011Z,8.49
2023-03-23T19:47:51.022Z,8.44
2023-03-23T19:50:17.581Z,8.34
2023-03-23T19:52:44.780Z,8.30
2023-03-23T19:55:11.656Z,8.32
2023-03-23T19:57:38.163Z,8.41
2023-03-23T20:00:07.628Z,8.30
2023-03-23T20:02:34.196Z,8.25
2023-03-23T20:05:00.839Z,8.21
2023-03-23T20:07:30.007Z,8.13
2023-03-23T20:09:56.520Z,8.09
2023-03-23T20:12:22.963Z,8.17
2023-03-23T20:14:49.556Z,8.19
2023-03-23T21:28:10.709Z,8.39
2023-03-23T21:30:37.484Z,8.11
2023-03-23T21:33:03.912Z,7.68
2023-03-23T21:35:30.394Z,7.88
2023-03-23T21:37:58.090Z,7.79
2023-03-23T21:40:26.197Z,7.72
2023-03-23T21:42:53.212Z,7.61
2023-03-23T21:45:20.980Z,7.61
2023-03-23T21:47:48.387Z,7.53
2023-03-23T21:50:15.992Z,7.51
2023-03-23T21:52:43.532Z,7.38
2023-03-23T21:55:12.447Z,7.44
2023-03-23T21:57:40.581Z,7.30
2023-03-23T22:00:09.342Z,7.34
2023-03-23T22:02:36.199Z,7.37
2023-03-23T22:05:02.707Z,7.33
2023-03-23T22:07:31.093Z,7.16
2023-03-23T22:09:59.074Z,7.21
2023-03-23T22:12:26.119Z,7.18
2023-03-23T22:14:52.573Z,7.09
2023-03-23T22:17:19.030Z,7.09
2023-03-23T22:19:45.635Z,7.14
2023-03-23T22:22:12.196Z,7.15
2023-03-23T22:24:38.631Z,7.08
2023-03-23T22:27:05.262Z,7.13
2023-03-23T22:29:31.972Z,7.16
2023-03-23T22:31:58.467Z,6.99
2023-03-23T22:34:24.956Z,7.02
2023-03-23T22:36:51.567Z,6.82
2023-03-23T22:39:18.050Z,6.81
2023-03-23T22:41:44.763Z,6.82
2023-03-23T22:44:14.718Z,6.77
2023-03-23T22:46:41.540Z,6.84
2023-03-23T22:49:08.065Z,6.73
2023-03-23T22:51:36.794Z,6.74
2023-03-23T22:54:04.497Z,6.76
2023-03-23T22:56:31.767Z,6.77
2023-03-23T22:59:00.101Z,6.71
2023-03-23T23:01:27.618Z,6.84
2023-03-23T23:03:54.152Z,6.83
2023-03-23T23:06:21.290Z,6.79
2023-03-23T23:08:48.764Z,6.77
2023-03-23T23:11:17.332Z,6.78
2023-03-23T23:13:44.375Z,6.81
2023-03-23T23:16:13.086Z,6.82
2023-03-23T23:18:40.655Z,6.85
2023-03-23T23:21:09.852Z,6.82
2023-03-23T23:23:37.442Z,6.81
2023-03-23T23:26:04.723Z,6.82
2023-03-23T23:28:31.733Z,6.78
2023-03-23T23:30:58.586Z,6.76
2023-03-23T23:33:25.425Z,6.74
2023-03-23T23:35:52.060Z,6.76
2023-03-23T23:38:18.688Z,6.71
2023-03-23T23:40:46.407Z,6.73
